Time;durP1;ratioP1;P1;durP2;ratioP2;P2;SDS_P1;SDS_P2;PMS_P1;PMS_P2;Temp;Humidity;BMP_temperature;BMP_pressure;BME280_temperature;BME280_humidity;BME280_pressure;Samples;Min_cycle;Max_cycle;Signal;HPM_P1;HPM_P2
2023/05/16 00:01:13;;;;;;;5.97;2.78;;;;;;;;;;6301623;22;20010;-79
2023/05/16 00:03:39;;;;;;;6.07;2.60;;;;;;;;;;6274157;22;20340;-77
2023/05/16 00:06:04;;;;;;;8.48;2.83;;;;;;;;;;6301478;22;20037;-78
2023/05/16 00:08:30;;;;;;;6.32;2.63;;;;;;;;;;6302062;22;20308;-78
2023/05/16 00:10:55;;;;;;;6.82;2.80;;;;;;;;;;6301757;22;20014;-78
2023/05/16 00:13:23;;;;;;;7.05;3.00;;;;;;;;;;6301498;22;19999;-77
2023/05/16 00:15:50;;;;;;;7.47;2.90;;;;;;;;;;6274500;22;20061;-76
2023/05/16 00:18:18;;;;;;;9.35;3.10;;;;;;;;;;6301175;22;20096;-76
2023/05/16 00:20:44;;;;;;;7.15;2.80;;;;;;;;;;6302072;22;20169;-76
2023/05/16 00:23:09;;;;;;;6.75;3.00;;;;;;;;;;6300835;22;19999;-78
2023/05/16 00:25:35;;;;;;;7.03;3.17;;;;;;;;;;6301546;22;20042;-78
2023/05/16 00:28:00;;;;;;;13.93;2.83;;;;;;;;;;6301639;22;19999;-78
2023/05/16 00:30:26;;;;;;;10.93;3.35;;;;;;;;;;6274530;22;20347;-78
2023/05/16 00:32:53;;;;;;;8.98;3.42;;;;;;;;;;6301237;22;20003;-76
2023/05/16 00:35:19;;;;;;;8.15;3.33;;;;;;;;;;6301913;22;20074;-79
2023/05/16 00:37:44;;;;;;;7.15;2.88;;;;;;;;;;6301088;22;20032;-78
2023/05/16 00:40:10;;;;;;;9.02;3.15;;;;;;;;;;6301534;22;20500;-78
2023/05/16 00:42:35;;;;;;;9.43;3.13;;;;;;;;;;6301189;22;19999;-78
2023/05/16 00:45:01;;;;;;;8.63;3.10;;;;;;;;;;6301652;22;20382;-77
2023/05/16 00:47:26;;;;;;;7.63;3.28;;;;;;;;;;6301668;22;20010;-78
2023/05/16 00:49:52;;;;;;;7.60;3.17;;;;;;;;;;6301608;22;20068;-77
2023/05/16 00:52:17;;;;;;;8.25;3.30;;;;;;;;;;6300940;22;20354;-79
2023/05/16 00:54:43;;;;;;;8.35;3.20;;;;;;;;;;6301921;22;20363;-79
2023/05/16 00:57:08;;;;;;;5.70;2.90;;;;;;;;;;6301200;22;20010;-78
2023/05/16 00:59:34;;;;;;;8.50;3.08;;;;;;;;;;6301620;22;20004;-78
2023/05/16 01:01:59;;;;;;;7.90;3.00;;;;;;;;;;6301428;22;20030;-79
2023/05/16 01:04:26;;;;;;;9.82;3.03;;;;;;;;;;6301257;22;20003;-78
2023/05/16 01:06:52;;;;;;;6.18;2.92;;;;;;;;;;6301198;22;20057;-78
2023/05/16 01:09:18;;;;;;;9.88;3.67;;;;;;;;;;6301549;22;20004;-79
2023/05/16 01:11:46;;;;;;;9.32;3.13;;;;;;;;;;6301642;22;20025;-78
2023/05/16 01:14:36;;;;;;;7.25;3.10;;;;;;;;;;6301302;22;20027;-79
2023/05/16 01:17:17;;;;;;;6.65;3.15;;;;;;;;;;6276090;22;20082;-78
2023/05/16 01:20:07;;;;;;;9.07;2.88;;;;;;;;;;6303381;22;20011;-79
2023/05/16 01:22:50;;;;;;;8.15;2.97;;;;;;;;;;6302640;22;20023;-79
2023/05/16 01:25:46;;;;;;;9.98;3.83;;;;;;;;;;6303569;22;19999;-77
2023/05/16 01:28:15;;;;;;;9.40;3.13;;;;;;;;;;6303905;22;20003;-78
2023/05/16 01:30:41;;;;;;;7.72;2.95;;;;;;;;;;6303459;22;20048;-78
2023/05/16 01:33:07;;;;;;;7.30;3.25;;;;;;;;;;6303054;22;20003;-78
2023/05/16 01:35:38;;;;;;;6.05;3.13;;;;;;;;;;6303650;22;19999;-79
2023/05/16 01:38:12;;;;;;;6.47;3.03;;;;;;;;;;6302604;22;20381;-76
2023/05/16 01:40:45;;;;;;;7.15;3.33;;;;;;;;;;6303314;22;20015;-77
2023/05/16 01:43:16;;;;;;;10.25;3.30;;;;;;;;;;6302906;22;19995;-78
2023/05/16 01:45:50;;;;;;;;;;;;;;;;;;6304009;22;20003;-76
2023/05/16 01:48:29;;;;;;;6.10;2.90;;;;;;;;;;6303092;22;19907;-77
2023/05/16 01:50:56;;;;;;;6.85;3.08;;;;;;;;;;6303290;22;20313;-77
2023/05/16 01:53:27;;;;;;;8.35;3.40;;;;;;;;;;6275207;22;20022;-77
2023/05/16 01:55:56;;;;;;;5.43;3.05;;;;;;;;;;6303464;22;20030;-78
2023/05/16 01:58:24;;;;;;;8.55;3.38;;;;;;;;;;6302972;22;20006;-78
2023/05/16 02:00:52;;;;;;;9.13;3.20;;;;;;;;;;6303056;22;20003;-78
2023/05/16 02:03:17;;;;;;;8.80;3.40;;;;;;;;;;6302521;22;20527;-78
2023/05/16 02:05:43;;;;;;;8.23;3.55;;;;;;;;;;6275837;22;20034;-78
2023/05/16 02:08:08;;;;;;;8.57;3.05;;;;;;;;;;6302481;22;20057;-77
2023/05/16 02:10:34;;;;;;;11.95;3.33;;;;;;;;;;6303252;22;20006;-78
2023/05/16 02:12:59;;;;;;;6.07;3.30;;;;;;;;;;6302788;22;20053;-78
2023/05/16 02:15:25;;;;;;;7.90;3.38;;;;;;;;;;6303261;22;20043;-78
2023/05/16 02:17:50;;;;;;;10.27;3.38;;;;;;;;;;6302913;22;20003;-77
2023/05/16 02:20:15;;;;;;;7.78;3.60;;;;;;;;;;6302745;22;20015;-78
2023/05/16 02:22:46;;;;;;;5.60;3.33;;;;;;;;;;6302383;22;20003;-76
2023/05/16 02:25:12;;;;;;;8.07;3.60;;;;;;;;;;6302814;22;20004;-77
2023/05/16 02:27:37;;;;;;;7.20;3.72;;;;;;;;;;6302454;22;20010;-78
2023/05/16 02:30:04;;;;;;;8.13;3.30;;;;;;;;;;6275320;22;20007;-77
2023/05/16 02:32:31;;;;;;;8.38;3.30;;;;;;;;;;6303217;22;20007;-77
2023/05/16 02:34:56;;;;;;;8.57;3.53;;;;;;;;;;6302364;22;20058;-78
2023/05/16 02:37:21;;;;;;;6.57;3.33;;;;;;;;;;6302438;22;20561;-76
2023/05/16 02:39:47;;;;;;;11.45;3.95;;;;;;;;;;6302425;22;20008;-77
2023/05/16 02:42:12;;;;;;;6.45;3.30;;;;;;;;;;6302767;22;20000;-78
2023/05/16 02:44:38;;;;;;;5.95;3.38;;;;;;;;;;6302355;22;20086;-78
2023/05/16 02:47:03;;;;;;;8.65;3.33;;;;;;;;;;6275455;22;20022;-76
2023/05/16 02:49:29;;;;;;;7.35;3.13;;;;;;;;;;6302659;22;20057;-77
2023/05/16 02:51:54;;;;;;;7.57;3.70;;;;;;;;;;6302327;22;20033;-77
2023/05/16 02:54:20;;;;;;;7.47;3.80;;;;;;;;;;6302300;22;20339;-77
2023/05/16 02:56:45;;;;;;;8.77;3.70;;;;;;;;;;6302699;22;20597;-78
2023/05/16 02:59:12;;;;;;;7.00;3.50;;;;;;;;;;6302444;22;20007;-78
2023/05/16 03:01:37;;;;;;;8.45;3.33;;;;;;;;;;6302614;22;20006;-77
2023/05/16 03:04:02;;;;;;;7.75;3.30;;;;;;;;;;6302228;22;20007;-78
2023/05/16 03:06:29;;;;;;;7.97;3.70;;;;;;;;;;6301935;22;20007;-76
2023/05/16 03:08:54;;;;;;;7.70;3.30;;;;;;;;;;6302498;22;19999;-78
2023/05/16 03:11:21;;;;;;;9.18;4.00;;;;;;;;;;6302552;22;20003;-77
2023/05/16 03:13:47;;;;;;;9.82;3.50;;;;;;;;;;6302014;22;20031;-78
2023/05/16 03:16:12;;;;;;;6.60;3.50;;;;;;;;;;6302417;22;20007;-78
2023/05/16 03:18:38;;;;;;;8.07;3.47;;;;;;;;;;6301976;22;20581;-78
2023/05/16 03:21:03;;;;;;;8.98;3.88;;;;;;;;;;6301688;22;20011;-77
2023/05/16 03:23:29;;;;;;;6.93;3.42;;;;;;;;;;6302061;22;20007;-79
2023/05/16 03:25:55;;;;;;;5.43;3.33;;;;;;;;;;6302157;22;20070;-77
2023/05/16 03:28:20;;;;;;;10.15;3.55;;;;;;;;;;6302228;22;19999;-78
2023/05/16 03:30:46;;;;;;;6.05;3.13;;;;;;;;;;6301930;22;20463;-78
2023/05/16 03:33:11;;;;;;;4.88;3.20;;;;;;;;;;6302392;22;19999;-77
2023/05/16 03:35:37;;;;;;;7.82;3.20;;;;;;;;;;6301963;22;19999;-77
2023/05/16 03:38:03;;;;;;;5.95;2.92;;;;;;;;;;6301641;22;20003;-76
2023/05/16 03:40:28;;;;;;;8.75;3.33;;;;;;;;;;6301716;22;20007;-78
2023/05/16 03:42:54;;;;;;;5.43;3.05;;;;;;;;;;6302303;22;20327;-79
2023/05/16 03:45:19;;;;;;;6.55;3.35;;;;;;;;;;6301832;22;20052;-78
2023/05/16 03:47:45;;;;;;;5.47;3.03;;;;;;;;;;6302313;22;20019;-78
2023/05/16 03:50:10;;;;;;;8.15;3.15;;;;;;;;;;6301914;22;20448;-78
2023/05/16 03:52:36;;;;;;;6.28;3.05;;;;;;;;;;6274349;22;20094;-79
2023/05/16 03:55:02;;;;;;;5.05;2.95;;;;;;;;;;6301708;22;20027;-78
2023/05/16 03:57:30;;;;;;;5.18;2.97;;;;;;;;;;6302082;22;19999;-78
2023/05/16 03:59:55;;;;;;;5.50;2.88;;;;;;;;;;6301767;22;20004;-78
2023/05/16 04:02:21;;;;;;;5.18;2.95;;;;;;;;;;6302039;22;20065;-79
2023/05/16 04:04:46;;;;;;;7.70;3.30;;;;;;;;;;6301217;22;20462;-78
2023/05/16 04:07:12;;;;;;;4.47;2.83;;;;;;;;;;6301889;22;20496;-78
2023/05/16 04:09:38;;;;;;;3.92;2.75;;;;;;;;;;6301756;22;19999;-78
2023/05/16 04:12:06;;;;;;;4.75;2.90;;;;;;;;;;6301834;22;20370;-77
2023/05/16 04:14:33;;;;;;;4.30;2.65;;;;;;;;;;6274153;22;20007;-77
2023/05/16 04:16:59;;;;;;;6.15;2.88;;;;;;;;;;6301731;22;20023;-78
2023/05/16 04:19:24;;;;;;;4.60;2.85;;;;;;;;;;6301384;22;20041;-78
2023/05/16 04:21:51;;;;;;;4.68;3.22;;;;;;;;;;6301342;22;19999;-78
2023/05/16 04:24:16;;;;;;;5.10;2.95;;;;;;;;;;6301626;22;20425;-78
2023/05/16 04:26:41;;;;;;;6.20;2.80;;;;;;;;;;6301977;22;20741;-78
2023/05/16 04:29:09;;;;;;;5.50;2.70;;;;;;;;;;6301914;22;20348;-78
2023/05/16 04:31:35;;;;;;;5.88;2.97;;;;;;;;;;6301904;22;20447;-78
2023/05/16 04:34:01;;;;;;;6.85;2.88;;;;;;;;;;6274399;22;20014;-77
2023/05/16 04:36:28;;;;;;;5.15;2.85;;;;;;;;;;6301162;22;20004;-79
2023/05/16 04:38:55;;;;;;;6.90;3.20;;;;;;;;;;6301918;22;20010;-78
2023/05/16 04:41:21;;;;;;;5.47;2.85;;;;;;;;;;6301431;22;20438;-78
2023/05/16 04:43:47;;;;;;;4.57;2.85;;;;;;;;;;6301589;22;20007;-77
2023/05/16 04:46:14;;;;;;;4.72;3.00;;;;;;;;;;6301443;22;20009;-79
2023/05/16 04:48:39;;;;;;;6.05;2.60;;;;;;;;;;6301578;22;20591;-78
2023/05/16 04:51:05;;;;;;;4.28;2.63;;;;;;;;;;6300807;22;20011;-78
2023/05/16 04:53:31;;;;;;;5.85;2.85;;;;;;;;;;6301836;22;20003;-77
2023/05/16 04:55:56;;;;;;;4.43;2.67;;;;;;;;;;6301269;22;20004;-78
2023/05/16 04:58:23;;;;;;;4.25;2.90;;;;;;;;;;6301659;22;20078;-78
2023/05/16 05:00:50;;;;;;;4.28;2.70;;;;;;;;;;6301250;22;20003;-77
2023/05/16 05:03:15;;;;;;;5.13;2.72;;;;;;;;;;6301624;22;19999;-78
2023/05/16 05:05:41;;;;;;;3.80;2.40;;;;;;;;;;6301282;22;20007;-79
2023/05/16 05:08:06;;;;;;;5.55;2.50;;;;;;;;;;6301143;22;20007;-77
2023/05/16 05:10:32;;;;;;;3.80;2.58;;;;;;;;;;6301484;22;20003;-79
2023/05/16 05:12:57;;;;;;;4.70;2.83;;;;;;;;;;6301800;22;20382;-79
2023/05/16 05:15:23;;;;;;;5.07;2.45;;;;;;;;;;6300952;22;20030;-79
2023/05/16 05:17:48;;;;;;;4.88;2.70;;;;;;;;;;6301660;22;20018;-79
2023/05/16 05:20:13;;;;;;;4.35;2.70;;;;;;;;;;6301016;22;20114;-79
2023/05/16 05:22:39;;;;;;;4.80;2.88;;;;;;;;;;6301166;22;20006;-79
2023/05/16 05:25:05;;;;;;;7.60;2.90;;;;;;;;;;6301082;22;20432;-79
2023/05/16 05:27:30;;;;;;;4.55;2.70;;;;;;;;;;6301498;22;20096;-79
2023/05/16 05:29:56;;;;;;;4.50;2.65;;;;;;;;;;6301481;22;20003;-79
2023/05/16 05:32:21;;;;;;;5.20;2.80;;;;;;;;;;6274005;22;20037;-77
2023/05/16 05:34:47;;;;;;;5.28;2.47;;;;;;;;;;6301241;22;20454;-78
2023/05/16 05:37:13;;;;;;;4.20;2.75;;;;;;;;;;6300786;22;19999;-77
2023/05/16 05:39:38;;;;;;;5.50;3.00;;;;;;;;;;6301274;22;20560;-78
2023/05/16 05:42:04;;;;;;;3.40;2.70;;;;;;;;;;6301230;22;19999;-77
2023/05/16 05:44:30;;;;;;;4.35;2.80;;;;;;;;;;6301314;22;20436;-77
2023/05/16 05:46:56;;;;;;;4.00;2.88;;;;;;;;;;6301146;22;20057;-78
2023/05/16 05:49:23;;;;;;;4.90;2.75;;;;;;;;;;6301756;22;20007;-78
2023/05/16 05:51:50;;;;;;;4.47;2.53;;;;;;;;;;6300637;22;20478;-78
2023/05/16 05:54:17;;;;;;;6.47;2.50;;;;;;;;;;6301472;22;20080;-78
2023/05/16 05:56:42;;;;;;;3.92;2.65;;;;;;;;;;6273443;22;20015;-77
2023/05/16 05:59:07;;;;;;;6.53;2.42;;;;;;;;;;6301115;22;20527;-77
2023/05/16 06:01:33;;;;;;;5.78;2.60;;;;;;;;;;6302113;22;19999;-77
2023/05/16 06:03:58;;;;;;;4.47;2.70;;;;;;;;;;6275887;22;20006;-77
2023/05/16 06:06:23;;;;;;;4.88;3.00;;;;;;;;;;6302358;22;20443;-79
2023/05/16 06:08:49;;;;;;;4.22;2.50;;;;;;;;;;6303233;22;20003;-80
2023/05/16 06:11:14;;;;;;;6.93;2.83;;;;;;;;;;6275671;22;20432;-79
2023/05/16 06:13:40;;;;;;;4.78;3.20;;;;;;;;;;6303285;22;20074;-77
2023/05/16 06:16:05;;;;;;;4.07;2.97;;;;;;;;;;6302528;22;20351;-78
2023/05/16 06:18:31;;;;;;;4.05;2.70;;;;;;;;;;6302827;22;20011;-79
2023/05/16 06:20:56;;;;;;;4.93;2.92;;;;;;;;;;6302301;22;20065;-78
2023/05/16 06:23:22;;;;;;;5.20;3.20;;;;;;;;;;6303108;22;19999;-78
2023/05/16 06:25:47;;;;;;;5.00;2.70;;;;;;;;;;6302607;22;19999;-77
2023/05/16 06:28:12;;;;;;;5.88;2.88;;;;;;;;;;6303188;22;20006;-78
2023/05/16 06:30:38;;;;;;;5.72;2.85;;;;;;;;;;6302951;22;20000;-80
2023/05/16 06:33:03;;;;;;;4.32;2.90;;;;;;;;;;6302807;22;20373;-79
2023/05/16 06:35:28;;;;;;;4.75;2.88;;;;;;;;;;6302921;22;20010;-79
2023/05/16 06:37:54;;;;;;;5.93;3.00;;;;;;;;;;6274706;22;20011;-79
2023/05/16 06:40:19;;;;;;;4.85;2.92;;;;;;;;;;6302691;22;20332;-80
2023/05/16 06:42:44;;;;;;;5.50;3.13;;;;;;;;;;6302403;22;20002;-78
2023/05/16 06:45:10;;;;;;;6.80;2.80;;;;;;;;;;6302740;22;20010;-79
2023/05/16 06:47:36;;;;;;;7.35;2.92;;;;;;;;;;6302751;22;20494;-79
2023/05/16 06:50:01;;;;;;;8.43;3.35;;;;;;;;;;6302822;22;20003;-78
2023/05/16 06:52:27;;;;;;;5.45;2.83;;;;;;;;;;6302349;22;20562;-79
2023/05/16 06:54:52;;;;;;;6.10;2.85;;;;;;;;;;6302671;22;20313;-79
2023/05/16 06:57:18;;;;;;;5.57;2.90;;;;;;;;;;6302385;22;20003;-79
2023/05/16 06:59:43;;;;;;;6.13;2.80;;;;;;;;;;6302676;22;20003;-77
2023/05/16 07:02:12;;;;;;;5.28;3.20;;;;;;;;;;6302553;22;20078;-77
2023/05/16 07:04:37;;;;;;;5.45;2.90;;;;;;;;;;6302644;22;20427;-77
2023/05/16 07:07:03;;;;;;;5.00;2.95;;;;;;;;;;6301772;22;20090;-79
2023/05/16 07:09:30;;;;;;;7.85;2.97;;;;;;;;;;6302735;22;20010;-79
2023/05/16 07:11:55;;;;;;;4.40;2.90;;;;;;;;;;6302065;22;20008;-78
2023/05/16 07:14:20;;;;;;;6.68;3.30;;;;;;;;;;6302476;22;20563;-79
2023/05/16 07:16:46;;;;;;;4.68;2.90;;;;;;;;;;6302078;22;20015;-80
2023/05/16 07:19:11;;;;;;;4.15;2.85;;;;;;;;;;6302337;22;20011;-80
2023/05/16 07:21:37;;;;;;;4.65;3.00;;;;;;;;;;6301390;22;20042;-79
2023/05/16 07:24:03;;;;;;;4.88;2.85;;;;;;;;;;6302515;22;20023;-79
2023/05/16 07:26:28;;;;;;;5.22;2.90;;;;;;;;;;6301809;22;20313;-79
2023/05/16 07:28:54;;;;;;;5.63;3.00;;;;;;;;;;6302467;22;20427;-79
2023/05/16 07:31:22;;;;;;;4.85;3.13;;;;;;;;;;6302409;22;20007;-79
2023/05/16 07:33:48;;;;;;;5.45;3.00;;;;;;;;;;6302434;22;20003;-79
2023/05/16 07:36:14;;;;;;;5.55;3.00;;;;;;;;;;6301471;22;20052;-77
2023/05/16 07:38:39;;;;;;;6.70;3.03;;;;;;;;;;6302094;22;20078;-78
2023/05/16 07:41:05;;;;;;;6.15;3.17;;;;;;;;;;6302137;22;20454;-78
2023/05/16 07:43:31;;;;;;;4.28;2.72;;;;;;;;;;6302238;22;20023;-78
2023/05/16 07:45:56;;;;;;;3.97;2.88;;;;;;;;;;6302119;22;20460;-78
2023/05/16 07:48:22;;;;;;;5.07;2.80;;;;;;;;;;6302010;22;20004;-78
2023/05/16 07:50:47;;;;;;;5.63;3.00;;;;;;;;;;6302334;22;20037;-78
2023/05/16 07:53:13;;;;;;;4.78;2.90;;;;;;;;;;6274150;22;20003;-79
2023/05/16 07:55:38;;;;;;;6.53;2.95;;;;;;;;;;6301804;22;20037;-78
2023/05/16 07:58:04;;;;;;;4.90;2.72;;;;;;;;;;6301668;22;20050;-79
2023/05/16 08:00:29;;;;;;;5.07;3.03;;;;;;;;;;6302010;22;20564;-78
2023/05/16 08:02:56;;;;;;;4.80;2.67;;;;;;;;;;6301911;22;20305;-78
2023/05/16 08:05:22;;;;;;;6.03;3.10;;;;;;;;;;6302067;22;20003;-78
2023/05/16 08:07:47;;;;;;;5.53;3.03;;;;;;;;;;6301356;22;19999;-78
2023/05/16 08:10:13;;;;;;;4.53;2.78;;;;;;;;;;6274849;22;20016;-79
2023/05/16 08:12:38;;;;;;;4.78;2.72;;;;;;;;;;6301891;22;20062;-79
2023/05/16 08:15:04;;;;;;;3.55;2.65;;;;;;;;;;6301917;22;20066;-79
2023/05/16 08:17:30;;;;;;;5.95;2.97;;;;;;;;;;6301455;22;20014;-78
2023/05/16 08:19:55;;;;;;;4.53;2.80;;;;;;;;;;6301723;22;20431;-79
2023/05/16 08:22:20;;;;;;;5.10;2.97;;;;;;;;;;6301255;22;20007;-77
2023/05/16 08:24:46;;;;;;;5.55;2.75;;;;;;;;;;6302015;22;20141;-78
2023/05/16 08:27:11;;;;;;;4.50;2.67;;;;;;;;;;6301498;22;20027;-78
2023/05/16 08:29:37;;;;;;;5.68;2.75;;;;;;;;;;6302140;22;20075;-78
2023/05/16 08:32:02;;;;;;;5.13;2.92;;;;;;;;;;6273938;22;20187;-78
2023/05/16 08:34:30;;;;;;;7.40;2.90;;;;;;;;;;6301827;22;20061;-77
2023/05/16 08:36:56;;;;;;;4.05;2.63;;;;;;;;;;6301081;22;20073;-78
2023/05/16 08:39:21;;;;;;;3.90;2.53;;;;;;;;;;6301527;22;20366;-79
2023/05/16 08:41:47;;;;;;;5.60;2.90;;;;;;;;;;6301892;22;20010;-79
2023/05/16 08:44:20;;;;;;;5.85;2.85;;;;;;;;;;6302197;22;20029;-78
2023/05/16 08:46:50;;;;;;;4.70;2.58;;;;;;;;;;6301984;22;20086;-79
2023/05/16 08:49:17;;;;;;;3.95;2.28;;;;;;;;;;6301888;22;20034;-78
2023/05/16 08:51:44;;;;;;;4.03;2.30;;;;;;;;;;6301183;22;20003;-76
2023/05/16 08:54:12;;;;;;;4.13;2.42;;;;;;;;;;6301402;22;20007;-79
2023/05/16 08:56:37;;;;;;;3.67;2.15;;;;;;;;;;6301506;22;20331;-78
2023/05/16 08:59:04;;;;;;;4.45;2.22;;;;;;;;;;6301441;22;20007;-79
2023/05/16 09:01:33;;;;;;;4.35;2.25;;;;;;;;;;6302040;22;20592;-78
2023/05/16 09:03:59;;;;;;;5.38;2.10;;;;;;;;;;6301556;22;20344;-79
2023/05/16 09:06:26;;;;;;;3.35;2.10;;;;;;;;;;6301024;22;20487;-79
2023/05/16 09:08:52;;;;;;;3.42;1.90;;;;;;;;;;6301328;22;20098;-79
2023/05/16 09:11:18;;;;;;;3.50;2.20;;;;;;;;;;6274084;22;20007;-78
2023/05/16 09:13:44;;;;;;;2.72;1.92;;;;;;;;;;6301335;22;20045;-79
2023/05/16 09:16:16;;;;;;;4.40;2.10;;;;;;;;;;6301651;22;20652;-79
2023/05/16 09:18:51;;;;;;;3.95;1.90;;;;;;;;;;6301254;22;19999;-79
2023/05/16 09:21:17;;;;;;;3.67;2.05;;;;;;;;;;6301423;22;20304;-79
2023/05/16 09:23:43;;;;;;;5.00;2.00;;;;;;;;;;6301306;22;20076;-79
2023/05/16 09:26:09;;;;;;;3.00;2.00;;;;;;;;;;6301644;22;20006;-79
2023/05/16 09:28:37;;;;;;;3.35;2.15;;;;;;;;;;6301401;22;19999;-79
2023/05/16 09:31:02;;;;;;;3.88;1.88;;;;;;;;;;6301433;22;20003;-79
2023/05/16 09:33:28;;;;;;;3.20;2.35;;;;;;;;;;6301337;22;19999;-78
2023/05/16 09:36:00;;;;;;;3.78;2.00;;;;;;;;;;6301799;22;20010;-78
2023/05/16 09:38:27;;;;;;;4.32;2.10;;;;;;;;;;6303525;22;20378;-78
2023/05/16 09:40:53;;;;;;;3.55;2.15;;;;;;;;;;6303646;22;20484;-78
2023/05/16 09:43:24;;;;;;;3.95;1.95;;;;;;;;;;6303299;22;20010;-76
2023/05/16 09:45:50;;;;;;;3.15;1.85;;;;;;;;;;6303640;22;20003;-78
2023/05/16 09:48:19;;;;;;;3.03;2.00;;;;;;;;;;6302993;22;20014;-78
2023/05/16 09:50:51;;;;;;;3.17;2.00;;;;;;;;;;6303199;22;20463;-78
2023/05/16 09:53:27;;;;;;;4.55;2.42;;;;;;;;;;6303299;22;20463;-79
2023/05/16 09:56:06;;;;;;;4.38;1.95;;;;;;;;;;6303550;22;20022;-78
2023/05/16 09:58:37;;;;;;;3.63;1.90;;;;;;;;;;6303075;22;20351;-78
2023/05/16 10:01:03;;;;;;;3.10;2.03;;;;;;;;;;6303333;22;20402;-78
2023/05/16 10:03:29;;;;;;;3.03;1.90;;;;;;;;;;6303292;22;20393;-78
2023/05/16 10:05:55;;;;;;;3.10;1.80;;;;;;;;;;6303033;22;19996;-78
2023/05/16 10:08:22;;;;;;;6.35;1.80;;;;;;;;;;6302652;22;19999;-78
2023/05/16 10:10:55;;;;;;;4.15;2.00;;;;;;;;;;6303181;22;20010;-77
2023/05/16 10:13:27;;;;;;;3.25;1.80;;;;;;;;;;6302793;22;20060;-78
2023/05/16 10:15:55;;;;;;;3.97;2.05;;;;;;;;;;6303146;22;20429;-78
2023/05/16 10:18:21;;;;;;;3.03;1.65;;;;;;;;;;6301488;22;20078;-78
2023/05/16 10:20:51;;;;;;;3.00;1.90;;;;;;;;;;6301877;22;20039;-76
2023/05/16 10:23:18;;;;;;;4.72;1.90;;;;;;;;;;6302819;22;20482;-77
2023/05/16 10:25:46;;;;;;;4.32;1.90;;;;;;;;;;6302994;22;20355;-78
2023/05/16 10:28:13;;;;;;;5.28;1.90;;;;;;;;;;6302718;22;20493;-78
2023/05/16 10:30:45;;;;;;;2.95;2.00;;;;;;;;;;6302630;22;20441;-78
2023/05/16 10:33:16;;;;;;;3.17;1.92;;;;;;;;;;6303469;22;20007;-78
2023/05/16 10:35:44;;;;;;;4.40;2.20;;;;;;;;;;6302683;22;20630;-77
2023/05/16 10:38:11;;;;;;;3.60;2.17;;;;;;;;;;6302288;22;19999;-78
2023/05/16 10:40:38;;;;;;;5.25;1.98;;;;;;;;;;6302849;22;20080;-78
2023/05/16 10:43:05;;;;;;;4.53;1.90;;;;;;;;;;6275144;22;20591;-77
2023/05/16 10:45:31;;;;;;;3.67;1.73;;;;;;;;;;6302804;22;20007;-78
2023/05/16 10:47:57;;;;;;;3.53;1.90;;;;;;;;;;6302131;22;20584;-77
2023/05/16 10:50:43;;;;;;;4.15;1.98;;;;;;;;;;6302275;22;19999;-78
2023/05/16 10:53:22;;;;;;;3.97;1.90;;;;;;;;;;6302475;22;20443;-78
2023/05/16 10:56:00;;;;;;;4.22;1.88;;;;;;;;;;6302976;22;20007;-77
2023/05/16 10:58:37;;;;;;;3.25;1.90;;;;;;;;;;6302736;22;19999;-76
2023/05/16 11:01:24;;;;;;;5.65;2.20;;;;;;;;;;6302587;22;20367;-77
2023/05/16 11:03:58;;;;;;;3.85;2.20;;;;;;;;;;6302562;22;20003;-77
2023/05/16 11:06:28;;;;;;;5.35;1.85;;;;;;;;;;6302074;22;20000;-77
2023/05/16 11:09:05;;;;;;;4.03;1.90;;;;;;;;;;6302284;22;20007;-77
2023/05/16 11:11:52;;;;;;;7.32;1.60;;;;;;;;;;6302356;22;20003;-80
2023/05/16 11:14:28;;;;;;;4.03;2.20;;;;;;;;;;6302595;22;20003;-77
2023/05/16 11:17:12;;;;;;;7.78;2.03;;;;;;;;;;6302548;22;20003;-77
2023/05/16 11:19:46;;;;;;;5.18;1.80;;;;;;;;;;6302076;22;20026;-76
2023/05/16 11:22:22;;;;;;;5.28;1.80;;;;;;;;;;6302057;22;20027;-79
2023/05/16 11:24:49;;;;;;;5.00;1.60;;;;;;;;;;6302255;22;20033;-79
2023/05/16 11:27:24;;;;;;;4.10;1.52;;;;;;;;;;6302092;22;20000;-79
2023/05/16 11:29:50;;;;;;;2.60;1.50;;;;;;;;;;6301969;22;20003;-80
2023/05/16 11:32:19;;;;;;;3.25;1.55;;;;;;;;;;6302476;22;20160;-79
2023/05/16 11:34:47;;;;;;;3.95;1.23;;;;;;;;;;6302402;22;20003;-79
2023/05/16 11:37:12;;;;;;;5.63;1.85;;;;;;;;;;6301828;22;20003;-78
2023/05/16 11:39:38;;;;;;;3.92;1.40;;;;;;;;;;6302311;22;20050;-80
2023/05/16 11:42:04;;;;;;;4.72;1.40;;;;;;;;;;6302220;22;19999;-78
2023/05/16 11:44:29;;;;;;;4.80;1.60;;;;;;;;;;6274560;22;20007;-79
2023/05/16 11:46:55;;;;;;;4.38;1.15;;;;;;;;;;6302219;22;20003;-78
2023/05/16 11:49:20;;;;;;;2.05;1.30;;;;;;;;;;6301614;22;20078;-80
2023/05/16 11:51:46;;;;;;;1.88;1.10;;;;;;;;;;6301803;22;20428;-79
2023/05/16 11:54:12;;;;;;;6.90;1.50;;;;;;;;;;6302160;22;19999;-79
2023/05/16 11:56:39;;;;;;;4.25;1.27;;;;;;;;;;6302287;22;20003;-78
2023/05/16 11:59:05;;;;;;;3.28;1.40;;;;;;;;;;6301872;22;20003;-79
2023/05/16 12:01:38;;;;;;;4.80;1.27;;;;;;;;;;6302052;22;20078;-79
2023/05/16 12:04:11;;;;;;;5.38;1.40;;;;;;;;;;6302096;22;20035;-78
2023/05/16 12:06:37;;;;;;;3.75;1.40;;;;;;;;;;6301419;22;20003;-77
2023/05/16 12:09:09;;;;;;;6.45;1.40;;;;;;;;;;6301984;22;20007;-76
2023/05/16 12:11:39;;;;;;;3.53;1.30;;;;;;;;;;6302015;22;20007;-77
2023/05/16 12:14:06;;;;;;;5.30;1.33;;;;;;;;;;6302141;22;20003;-79
2023/05/16 12:16:33;;;;;;;3.72;1.23;;;;;;;;;;6302252;22;20003;-77
2023/05/16 12:19:00;;;;;;;3.05;1.25;;;;;;;;;;6301002;22;20026;-77
2023/05/16 12:21:26;;;;;;;5.72;1.40;;;;;;;;;;6300957;22;20003;-79
2023/05/16 12:23:58;;;;;;;4.72;1.20;;;;;;;;;;6302276;22;20325;-78
2023/05/16 12:26:29;;;;;;;3.35;1.30;;;;;;;;;;6301407;22;20053;-79
2023/05/16 12:29:03;;;;;;;4.85;1.30;;;;;;;;;;6301656;22;20331;-79
2023/05/16 12:31:30;;;;;;;3.70;1.33;;;;;;;;;;6301786;22;20003;-78
2023/05/16 12:33:57;;;;;;;3.60;1.20;;;;;;;;;;6302189;22;20003;-79
2023/05/16 12:36:25;;;;;;;3.67;1.40;;;;;;;;;;6301590;22;20000;-78
2023/05/16 12:38:51;;;;;;;3.08;1.23;;;;;;;;;;6301770;22;20078;-79
2023/05/16 12:41:21;;;;;;;5.00;1.30;;;;;;;;;;6301453;22;20493;-79
2023/05/16 12:43:49;;;;;;;5.68;1.40;;;;;;;;;;6301916;22;20000;-78
2023/05/16 12:46:15;;;;;;;3.65;1.40;;;;;;;;;;6301646;22;20010;-79
2023/05/16 12:48:42;;;;;;;4.40;1.60;;;;;;;;;;6301605;22;20078;-79
2023/05/16 12:51:12;;;;;;;4.72;1.77;;;;;;;;;;6273476;22;20026;-78
2023/05/16 12:53:46;;;;;;;5.78;1.77;;;;;;;;;;6301910;22;20007;-79
2023/05/16 12:56:13;;;;;;;5.88;1.63;;;;;;;;;;6301391;22;20007;-79
2023/05/16 12:58:39;;;;;;;4.43;1.50;;;;;;;;;;6301570;22;20074;-78
2023/05/16 13:01:05;;;;;;;4.78;1.50;;;;;;;;;;6301526;22;20027;-79
2023/05/16 13:03:31;;;;;;;10.55;1.73;;;;;;;;;;6301746;22;20003;-77
2023/05/16 13:05:57;;;;;;;4.10;1.40;;;;;;;;;;6300929;22;20006;-79
2023/05/16 13:08:23;;;;;;;3.67;1.40;;;;;;;;;;6301724;22;20008;-78
2023/05/16 13:10:49;;;;;;;3.97;1.48;;;;;;;;;;6302129;22;20006;-78
2023/05/16 13:13:15;;;;;;;4.18;1.30;;;;;;;;;;6304101;22;20082;-78
2023/05/16 13:15:41;;;;;;;4.50;1.30;;;;;;;;;;6276261;22;19999;-79
2023/05/16 13:18:07;;;;;;;7.07;1.45;;;;;;;;;;6303511;22;20347;-79
2023/05/16 13:20:32;;;;;;;6.28;1.42;;;;;;;;;;6249466;22;20734;-78
2023/05/16 13:22:58;;;;;;;5.72;1.50;;;;;;;;;;6146258;23;20766;-77
2023/05/16 13:25:30;;;;;;;3.15;1.30;;;;;;;;;;6249997;22;20556;-78
2023/05/16 13:27:55;;;;;;;4.50;1.48;;;;;;;;;;6146726;23;20337;-78
2023/05/16 13:30:21;;;;;;;4.40;1.38;;;;;;;;;;6146720;23;20434;-78
2023/05/16 13:32:47;;;;;;;3.55;1.50;;;;;;;;;;6146982;23;20013;-79
2023/05/16 13:35:12;;;;;;;4.38;1.52;;;;;;;;;;6146828;23;20001;-78
2023/05/16 13:37:38;;;;;;;5.10;2.00;;;;;;;;;;6146206;23;20021;-78
2023/05/16 13:40:07;;;;;;;3.88;1.30;;;;;;;;;;6146812;23;20423;-79
2023/05/16 13:42:32;;;;;;;5.38;1.63;;;;;;;;;;6146472;23;20109;-78
2023/05/16 13:44:57;;;;;;;4.25;1.23;;;;;;;;;;6146760;23;20037;-77
2023/05/16 13:47:23;;;;;;;3.17;1.60;;;;;;;;;;6146784;23;20001;-78
2023/05/16 13:49:48;;;;;;;3.08;1.40;;;;;;;;;;6146586;23;20009;-79
2023/05/16 13:52:13;;;;;;;5.53;1.65;;;;;;;;;;6146264;23;20006;-79
2023/05/16 13:54:40;;;;;;;3.55;1.52;;;;;;;;;;6146716;23;20111;-78
2023/05/16 13:57:06;;;;;;;3.53;1.40;;;;;;;;;;6146534;23;20069;-79
2023/05/16 13:59:31;;;;;;;4.95;1.48;;;;;;;;;;6146624;23;20099;-78
2023/05/16 14:01:56;;;;;;;2.88;1.40;;;;;;;;;;6146345;23;20009;-78
2023/05/16 14:04:22;;;;;;;3.92;1.55;;;;;;;;;;6146649;23;20005;-78
2023/05/16 14:06:48;;;;;;;3.92;1.50;;;;;;;;;;6146148;23;20012;-78
2023/05/16 14:09:14;;;;;;;3.08;1.35;;;;;;;;;;6146809;23;20001;-78
2023/05/16 14:11:39;;;;;;;5.82;1.60;;;;;;;;;;6146474;23;20010;-78
2023/05/16 14:14:04;;;;;;;3.53;1.38;;;;;;;;;;6146779;23;20059;-78
2023/05/16 14:16:30;;;;;;;6.22;1.50;;;;;;;;;;6146555;23;20058;-78
2023/05/16 14:18:56;;;;;;;5.57;1.80;;;;;;;;;;6179236;22;20048;-77
2023/05/16 14:21:21;;;;;;;3.25;1.27;;;;;;;;;;6302151;22;20086;-78
2023/05/16 14:23:47;;;;;;;4.32;1.50;;;;;;;;;;6303198;22;20006;-78
2023/05/16 14:26:13;;;;;;;5.03;1.60;;;;;;;;;;6302900;22;20003;-78
2023/05/16 14:28:38;;;;;;;4.07;1.50;;;;;;;;;;6302747;22;20011;-78
2023/05/16 14:31:04;;;;;;;6.13;1.50;;;;;;;;;;6302993;22;19999;-78
2023/05/16 14:33:31;;;;;;;5.80;1.40;;;;;;;;;;6303116;22;20082;-79
2023/05/16 14:35:57;;;;;;;7.22;1.55;;;;;;;;;;6302618;22;20168;-79
2023/05/16 14:38:22;;;;;;;4.82;1.50;;;;;;;;;;6302738;22;20025;-78
2023/05/16 14:40:48;;;;;;;7.50;1.90;;;;;;;;;;6303084;22;20003;-79
2023/05/16 14:43:13;;;;;;;4.60;1.58;;;;;;;;;;6302705;22;20343;-77